sensor_id;sensor_type;location;lat;lon;timestamp;temperature;humidity
12771;DHT22;6449;47.666;9.160;2023-02-01T00:00:16;3.60;99.90
12771;DHT22;6449;47.666;9.160;2023-02-01T00:05:10;3.60;99.90
12771;DHT22;6449;47.666;9.160;2023-02-01T00:10:06;3.60;99.90
12771;DHT22;6449;47.666;9.160;2023-02-01T00:15:01;3.60;99.90
12771;DHT22;6449;47.666;9.160;2023-02-01T00:19:54;3.60;99.90
12771;DHT22;6449;47.666;9.160;2023-02-01T00:24:48;3.60;99.90
12771;DHT22;6449;47.666;9.160;2023-02-01T00:29:43;3.60;99.90
12771;DHT22;6449;47.666;9.160;2023-02-01T00:34:37;3.50;99.90
12771;DHT22;6449;47.666;9.160;2023-02-01T00:39:30;3.50;99.90
12771;DHT22;6449;47.666;9.160;2023-02-01T00:44:24;3.50;99.90
12771;DHT22;6449;47.666;9.160;2023-02-01T00:49:20;3.40;99.90
12771;DHT22;6449;47.666;9.160;2023-02-01T00:54:13;3.40;99.90
12771;DHT22;6449;47.666;9.160;2023-02-01T00:59:10;3.40;99.90
12771;DHT22;6449;47.666;9.160;2023-02-01T01:04:04;3.40;99.90
12771;DHT22;6449;47.666;9.160;2023-02-01T01:09:00;3.50;99.90
12771;DHT22;6449;47.666;9.160;2023-02-01T01:13:57;3.50;99.90
12771;DHT22;6449;47.666;9.160;2023-02-01T01:18:51;3.40;99.90
12771;DHT22;6449;47.666;9.160;2023-02-01T01:23:46;3.30;99.90
12771;DHT22;6449;47.666;9.160;2023-02-01T01:28:41;3.30;99.90
12771;DHT22;6449;47.666;9.160;2023-02-01T01:33:35;3.30;99.90
12771;DHT22;6449;47.666;9.160;2023-02-01T01:38:31;3.50;99.90
12771;DHT22;6449;47.666;9.160;2023-02-01T01:43:24;3.50;99.90
12771;DHT22;6449;47.666;9.160;2023-02-01T01:48:26;3.50;99.90
12771;DHT22;6449;47.666;9.160;2023-02-01T01:53:26;3.40;99.90
12771;DHT22;6449;47.666;9.160;2023-02-01T01:58:25;3.40;99.90
12771;DHT22;6449;47.666;9.160;2023-02-01T02:03:25;3.50;99.90
12771;DHT22;6449;47.666;9.160;2023-02-01T02:08:27;3.40;99.90
12771;DHT22;6449;47.666;9.160;2023-02-01T02:13:21;3.50;99.90
12771;DHT22;6449;47.666;9.160;2023-02-01T02:18:19;3.40;99.90
12771;DHT22;6449;47.666;9.160;2023-02-01T02:29:24;3.30;99.90
12771;DHT22;6449;47.666;9.160;2023-02-01T02:34:43;3.30;99.90
12771;DHT22;6449;47.666;9.160;2023-02-01T02:39:48;3.40;99.90
12771;DHT22;6449;47.666;9.160;2023-02-01T02:44:48;3.40;99.90
12771;DHT22;6449;47.666;9.160;2023-02-01T02:50:15;3.40;99.90
12771;DHT22;6449;47.666;9.160;2023-02-01T02:55:30;3.30;99.90
12771;DHT22;6449;47.666;9.160;2023-02-01T03:00:30;3.20;99.90
12771;DHT22;6449;47.666;9.160;2023-02-01T03:05:47;3.10;99.90
12771;DHT22;6449;47.666;9.160;2023-02-01T03:10:53;3.10;99.90
12771;DHT22;6449;47.666;9.160;2023-02-01T03:15:56;3.10;99.90
12771;DHT22;6449;47.666;9.160;2023-02-01T03:20:59;3.10;99.90
12771;DHT22;6449;47.666;9.160;2023-02-01T03:25:57;3.00;99.90
12771;DHT22;6449;47.666;9.160;2023-02-01T03:30:54;3.00;99.90
12771;DHT22;6449;47.666;9.160;2023-02-01T03:35:53;3.10;99.90
12771;DHT22;6449;47.666;9.160;2023-02-01T03:40:58;3.00;99.90
12771;DHT22;6449;47.666;9.160;2023-02-01T03:46:01;2.90;99.90
12771;DHT22;6449;47.666;9.160;2023-02-01T03:51:03;2.80;99.90
12771;DHT22;6449;47.666;9.160;2023-02-01T04:00:56;2.70;99.90
12771;DHT22;6449;47.666;9.160;2023-02-01T04:05:51;2.70;99.90
12771;DHT22;6449;47.666;9.160;2023-02-01T04:10:47;2.70;99.90
12771;DHT22;6449;47.666;9.160;2023-02-01T04:15:40;2.70;99.90
12771;DHT22;6449;47.666;9.160;2023-02-01T04:20:34;2.70;99.90
12771;DHT22;6449;47.666;9.160;2023-02-01T04:25:29;2.80;99.90
12771;DHT22;6449;47.666;9.160;2023-02-01T04:30:24;2.80;99.90
12771;DHT22;6449;47.666;9.160;2023-02-01T04:35:18;2.90;99.90
12771;DHT22;6449;47.666;9.160;2023-02-01T04:40:12;2.90;99.90
12771;DHT22;6449;47.666;9.160;2023-02-01T04:45:06;2.90;99.90
12771;DHT22;6449;47.666;9.160;2023-02-01T04:50:02;2.80;99.90
12771;DHT22;6449;47.666;9.160;2023-02-01T04:54:55;2.80;99.90
12771;DHT22;6449;47.666;9.160;2023-02-01T04:59:52;2.90;99.90
12771;DHT22;6449;47.666;9.160;2023-02-01T05:04:45;3.00;99.90
12771;DHT22;6449;47.666;9.160;2023-02-01T05:09:40;2.90;99.90
12771;DHT22;6449;47.666;9.160;2023-02-01T05:14:34;2.80;99.90
12771;DHT22;6449;47.666;9.160;2023-02-01T05:19:27;2.80;99.90
12771;DHT22;6449;47.666;9.160;2023-02-01T05:24:21;2.90;99.90
12771;DHT22;6449;47.666;9.160;2023-02-01T05:34:37;2.90;99.90
12771;DHT22;6449;47.666;9.160;2023-02-01T05:39:30;2.80;99.90
12771;DHT22;6449;47.666;9.160;2023-02-01T05:44:23;2.80;99.90
12771;DHT22;6449;47.666;9.160;2023-02-01T05:49:17;2.80;99.90
12771;DHT22;6449;47.666;9.160;2023-02-01T05:54:12;2.70;99.90
12771;DHT22;6449;47.666;9.160;2023-02-01T05:59:05;2.80;99.90
12771;DHT22;6449;47.666;9.160;2023-02-01T06:03:59;2.80;99.90
12771;DHT22;6449;47.666;9.160;2023-02-01T06:08:52;2.70;99.90
12771;DHT22;6449;47.666;9.160;2023-02-01T06:13:47;2.70;99.90
12771;DHT22;6449;47.666;9.160;2023-02-01T06:18:41;2.70;99.90
12771;DHT22;6449;47.666;9.160;2023-02-01T06:23:35;2.60;99.90
12771;DHT22;6449;47.666;9.160;2023-02-01T06:28:28;2.60;99.90
12771;DHT22;6449;47.666;9.160;2023-02-01T06:33:23;2.60;99.90
12771;DHT22;6449;47.666;9.160;2023-02-01T06:38:17;2.70;99.90
12771;DHT22;6449;47.666;9.160;2023-02-01T06:48:16;2.80;99.90
12771;DHT22;6449;47.666;9.160;2023-02-01T06:53:10;2.80;99.90
12771;DHT22;6449;47.666;9.160;2023-02-01T06:58:04;2.80;99.90
12771;DHT22;6449;47.666;9.160;2023-02-01T07:02:58;2.80;99.90
12771;DHT22;6449;47.666;9.160;2023-02-01T07:07:52;2.90;99.90
12771;DHT22;6449;47.666;9.160;2023-02-01T07:12:47;2.90;99.90
12771;DHT22;6449;47.666;9.160;2023-02-01T07:17:40;2.70;99.90
12771;DHT22;6449;47.666;9.160;2023-02-01T07:27:39;2.50;99.90
12771;DHT22;6449;47.666;9.160;2023-02-01T07:32:34;2.50;99.90
12771;DHT22;6449;47.666;9.160;2023-02-01T07:37:27;2.60;99.90
12771;DHT22;6449;47.666;9.160;2023-02-01T07:42:21;2.60;99.90
12771;DHT22;6449;47.666;9.160;2023-02-01T07:47:14;2.60;99.90
12771;DHT22;6449;47.666;9.160;2023-02-01T07:52:09;2.60;99.90
12771;DHT22;6449;47.666;9.160;2023-02-01T07:57:04;2.60;99.90
12771;DHT22;6449;47.666;9.160;2023-02-01T08:02:00;2.70;99.90
12771;DHT22;6449;47.666;9.160;2023-02-01T08:06:53;2.70;99.90
12771;DHT22;6449;47.666;9.160;2023-02-01T08:11:48;2.70;99.90
12771;DHT22;6449;47.666;9.160;2023-02-01T08:16:42;2.70;99.90
12771;DHT22;6449;47.666;9.160;2023-02-01T08:21:35;2.80;99.90
12771;DHT22;6449;47.666;9.160;2023-02-01T08:26:31;2.80;99.90
12771;DHT22;6449;47.666;9.160;2023-02-01T08:31:27;2.80;99.90
12771;DHT22;6449;47.666;9.160;2023-02-01T08:36:23;2.90;99.90
12771;DHT22;6449;47.666;9.160;2023-02-01T08:41:20;2.90;99.90
12771;DHT22;6449;47.666;9.160;2023-02-01T08:46:16;3.00;99.90
12771;DHT22;6449;47.666;9.160;2023-02-01T08:51:12;3.00;99.90
12771;DHT22;6449;47.666;9.160;2023-02-01T08:56:08;3.10;99.90
12771;DHT22;6449;47.666;9.160;2023-02-01T09:01:14;3.10;99.90
12771;DHT22;6449;47.666;9.160;2023-02-01T09:06:17;3.10;99.90
12771;DHT22;6449;47.666;9.160;2023-02-01T09:11:15;3.10;99.90
12771;DHT22;6449;47.666;9.160;2023-02-01T09:16:11;3.10;99.90
12771;DHT22;6449;47.666;9.160;2023-02-01T09:21:06;3.10;99.90
12771;DHT22;6449;47.666;9.160;2023-02-01T09:26:02;3.10;99.90
12771;DHT22;6449;47.666;9.160;2023-02-01T09:30:57;3.10;99.90
12771;DHT22;6449;47.666;9.160;2023-02-01T09:35:55;3.20;99.90
12771;DHT22;6449;47.666;9.160;2023-02-01T09:40:49;3.20;99.90
12771;DHT22;6449;47.666;9.160;2023-02-01T09:45:51;3.30;99.90
12771;DHT22;6449;47.666;9.160;2023-02-01T09:50:55;3.30;99.90
12771;DHT22;6449;47.666;9.160;2023-02-01T09:55:53;3.40;99.90
12771;DHT22;6449;47.666;9.160;2023-02-01T10:00:52;3.50;99.90
12771;DHT22;6449;47.666;9.160;2023-02-01T10:11:35;3.60;99.90
12771;DHT22;6449;47.666;9.160;2023-02-01T10:16:49;3.60;99.90
12771;DHT22;6449;47.666;9.160;2023-02-01T10:21:54;3.70;99.90
12771;DHT22;6449;47.666;9.160;2023-02-01T10:26:59;3.80;99.90
12771;DHT22;6449;47.666;9.160;2023-02-01T10:31:57;3.90;99.90
12771;DHT22;6449;47.666;9.160;2023-02-01T10:36:56;4.00;99.90
12771;DHT22;6449;47.666;9.160;2023-02-01T10:41:55;4.10;99.90
12771;DHT22;6449;47.666;9.160;2023-02-01T10:46:49;4.10;99.90
12771;DHT22;6449;47.666;9.160;2023-02-01T10:51:47;4.10;99.90
12771;DHT22;6449;47.666;9.160;2023-02-01T10:56:44;4.30;99.90
12771;DHT22;6449;47.666;9.160;2023-02-01T11:07:05;4.50;99.90
12771;DHT22;6449;47.666;9.160;2023-02-01T11:12:01;4.70;99.90
12771;DHT22;6449;47.666;9.160;2023-02-01T11:16:58;4.90;99.90
12771;DHT22;6449;47.666;9.160;2023-02-01T11:21:56;5.30;99.90
12771;DHT22;6449;47.666;9.160;2023-02-01T11:26:55;5.50;99.90
12771;DHT22;6449;47.666;9.160;2023-02-01T11:31:51;5.60;99.90
12771;DHT22;6449;47.666;9.160;2023-02-01T11:36:46;5.70;99.90
12771;DHT22;6449;47.666;9.160;2023-02-01T11:41:54;5.70;99.90
12771;DHT22;6449;47.666;9.160;2023-02-01T11:46:50;5.80;99.90
12771;DHT22;6449;47.666;9.160;2023-02-01T11:51:52;5.90;99.90
12771;DHT22;6449;47.666;9.160;2023-02-01T11:57:07;6.10;99.90
12771;DHT22;6449;47.666;9.160;2023-02-01T12:02:26;6.00;99.90
12771;DHT22;6449;47.666;9.160;2023-02-01T12:07:53;6.00;99.90
12771;DHT22;6449;47.666;9.160;2023-02-01T12:13:06;6.10;99.90
12771;DHT22;6449;47.666;9.160;2023-02-01T12:24:03;6.00;99.90
12771;DHT22;6449;47.666;9.160;2023-02-01T12:29:30;5.90;99.90
12771;DHT22;6449;47.666;9.160;2023-02-01T12:40:28;5.70;99.90
12771;DHT22;6449;47.666;9.160;2023-02-01T12:45:38;5.70;99.90
12771;DHT22;6449;47.666;9.160;2023-02-01T12:50:41;5.70;99.90
12771;DHT22;6449;47.666;9.160;2023-02-01T12:55:42;5.70;99.90
12771;DHT22;6449;47.666;9.160;2023-02-01T13:00:46;5.60;99.90
12771;DHT22;6449;47.666;9.160;2023-02-01T13:05:50;5.50;99.90
12771;DHT22;6449;47.666;9.160;2023-02-01T13:10:53;5.50;99.90
12771;DHT22;6449;47.666;9.160;2023-02-01T13:16:11;5.50;99.90
12771;DHT22;6449;47.666;9.160;2023-02-01T13:21:13;5.40;99.90
12771;DHT22;6449;47.666;9.160;2023-02-01T13:26:09;5.30;99.90
12771;DHT22;6449;47.666;9.160;2023-02-01T13:31:34;5.20;99.90
12771;DHT22;6449;47.666;9.160;2023-02-01T13:36:53;5.10;99.90
12771;DHT22;6449;47.666;9.160;2023-02-01T13:41:59;5.10;99.90
12771;DHT22;6449;47.666;9.160;2023-02-01T13:46:59;5.10;99.90
12771;DHT22;6449;47.666;9.160;2023-02-01T13:51:56;5.10;99.90
12771;DHT22;6449;47.666;9.160;2023-02-01T13:56:52;5.10;99.90
12771;DHT22;6449;47.666;9.160;2023-02-01T14:01:47;5.20;99.90
12771;DHT22;6449;47.666;9.160;2023-02-01T14:06:45;5.20;99.90
12771;DHT22;6449;47.666;9.160;2023-02-01T14:11:44;5.20;99.90
12771;DHT22;6449;47.666;9.160;2023-02-01T14:16:40;5.20;99.90
12771;DHT22;6449;47.666;9.160;2023-02-01T14:21:48;5.10;99.90
12771;DHT22;6449;47.666;9.160;2023-02-01T14:26:47;5.10;99.90
12771;DHT22;6449;47.666;9.160;2023-02-01T14:31:48;5.10;99.90
12771;DHT22;6449;47.666;9.160;2023-02-01T14:36:51;5.10;99.90
12771;DHT22;6449;47.666;9.160;2023-02-01T14:41:54;5.20;99.90
12771;DHT22;6449;47.666;9.160;2023-02-01T14:47:07;5.10;99.90
12771;DHT22;6449;47.666;9.160;2023-02-01T14:52:30;5.10;99.90
12771;DHT22;6449;47.666;9.160;2023-02-01T14:57:28;5.10;99.90
12771;DHT22;6449;47.666;9.160;2023-02-01T15:02:25;5.10;99.90
12771;DHT22;6449;47.666;9.160;2023-02-01T15:07:21;5.00;99.90
12771;DHT22;6449;47.666;9.160;2023-02-01T15:12:22;5.00;99.90
12771;DHT22;6449;47.666;9.160;2023-02-01T15:17:20;5.00;99.90
12771;DHT22;6449;47.666;9.160;2023-02-01T15:22:18;5.00;99.90
12771;DHT22;6449;47.666;9.160;2023-02-01T15:27:12;5.00;99.90
12771;DHT22;6449;47.666;9.160;2023-02-01T15:32:28;5.00;99.90
12771;DHT22;6449;47.666;9.160;2023-02-01T15:37:22;5.00;99.90
12771;DHT22;6449;47.666;9.160;2023-02-01T15:42:17;5.00;99.90
12771;DHT22;6449;47.666;9.160;2023-02-01T15:47:16;5.00;99.90
12771;DHT22;6449;47.666;9.160;2023-02-01T15:52:22;4.90;99.90
12771;DHT22;6449;47.666;9.160;2023-02-01T15:57:22;4.90;99.90
12771;DHT22;6449;47.666;9.160;2023-02-01T16:02:29;4.80;99.90
12771;DHT22;6449;47.666;9.160;2023-02-01T16:07:29;4.80;99.90
12771;DHT22;6449;47.666;9.160;2023-02-01T16:12:29;4.80;99.90
12771;DHT22;6449;47.666;9.160;2023-02-01T16:17:28;4.70;99.90
12771;DHT22;6449;47.666;9.160;2023-02-01T16:22:21;4.70;99.90
12771;DHT22;6449;47.666;9.160;2023-02-01T16:27:15;4.70;99.90
12771;DHT22;6449;47.666;9.160;2023-02-01T16:32:14;4.60;99.90
12771;DHT22;6449;47.666;9.160;2023-02-01T16:37:15;4.70;99.90
12771;DHT22;6449;47.666;9.160;2023-02-01T16:42:14;4.70;99.90
12771;DHT22;6449;47.666;9.160;2023-02-01T16:47:12;4.70;99.90
12771;DHT22;6449;47.666;9.160;2023-02-01T16:52:16;4.70;99.90
12771;DHT22;6449;47.666;9.160;2023-02-01T16:57:14;4.70;99.90
12771;DHT22;6449;47.666;9.160;2023-02-01T17:02:11;4.60;99.90
12771;DHT22;6449;47.666;9.160;2023-02-01T17:07:06;4.50;99.90
12771;DHT22;6449;47.666;9.160;2023-02-01T17:12:03;4.60;99.90
12771;DHT22;6449;47.666;9.160;2023-02-01T17:16:57;4.60;99.90
12771;DHT22;6449;47.666;9.160;2023-02-01T17:21:52;4.60;99.90
12771;DHT22;6449;47.666;9.160;2023-02-01T17:26:47;4.60;99.90
12771;DHT22;6449;47.666;9.160;2023-02-01T17:31:44;4.50;99.90
12771;DHT22;6449;47.666;9.160;2023-02-01T17:36:40;4.60;99.90
12771;DHT22;6449;47.666;9.160;2023-02-01T17:41:35;4.50;99.90
12771;DHT22;6449;47.666;9.160;2023-02-01T17:46:30;4.50;99.90
12771;DHT22;6449;47.666;9.160;2023-02-01T17:51:27;4.50;99.90
12771;DHT22;6449;47.666;9.160;2023-02-01T17:56:23;4.50;99.90
12771;DHT22;6449;47.666;9.160;2023-02-01T18:01:20;4.40;99.90
12771;DHT22;6449;47.666;9.160;2023-02-01T18:06:17;4.40;99.90
12771;DHT22;6449;47.666;9.160;2023-02-01T18:11:17;4.50;99.90
12771;DHT22;6449;47.666;9.160;2023-02-01T18:16:18;4.50;99.90
12771;DHT22;6449;47.666;9.160;2023-02-01T18:21:13;4.50;99.90
12771;DHT22;6449;47.666;9.160;2023-02-01T18:26:09;4.50;99.90
12771;DHT22;6449;47.666;9.160;2023-02-01T18:31:05;4.50;99.90
12771;DHT22;6449;47.666;9.160;2023-02-01T18:35:59;4.40;99.90
12771;DHT22;6449;47.666;9.160;2023-02-01T18:40:54;4.50;99.90
12771;DHT22;6449;47.666;9.160;2023-02-01T18:45:49;4.50;99.90
12771;DHT22;6449;47.666;9.160;2023-02-01T18:50:47;4.50;99.90
12771;DHT22;6449;47.666;9.160;2023-02-01T18:55:42;4.50;99.90
12771;DHT22;6449;47.666;9.160;2023-02-01T19:00:36;4.50;99.90
12771;DHT22;6449;47.666;9.160;2023-02-01T19:05:30;4.50;99.90
12771;DHT22;6449;47.666;9.160;2023-02-01T19:10:25;4.50;99.90
12771;DHT22;6449;47.666;9.160;2023-02-01T19:15:19;4.50;99.90
12771;DHT22;6449;47.666;9.160;2023-02-01T19:20:15;4.50;99.90
12771;DHT22;6449;47.666;9.160;2023-02-01T19:25:14;4.60;99.90
12771;DHT22;6449;47.666;9.160;2023-02-01T19:30:25;4.60;99.90
12771;DHT22;6449;47.666;9.160;2023-02-01T19:35:21;4.60;99.90
12771;DHT22;6449;47.666;9.160;2023-02-01T19:40:18;4.50;99.90
12771;DHT22;6449;47.666;9.160;2023-02-01T19:45:12;4.50;99.90
12771;DHT22;6449;47.666;9.160;2023-02-01T19:50:10;4.60;99.90
12771;DHT22;6449;47.666;9.160;2023-02-01T19:55:08;4.50;99.90
12771;DHT22;6449;47.666;9.160;2023-02-01T20:00:03;4.50;99.90
12771;DHT22;6449;47.666;9.160;2023-02-01T20:04:58;4.50;99.90
12771;DHT22;6449;47.666;9.160;2023-02-01T20:09:53;4.40;99.90
12771;DHT22;6449;47.666;9.160;2023-02-01T20:14:47;4.50;99.90
12771;DHT22;6449;47.666;9.160;2023-02-01T20:19:40;4.50;99.90
12771;DHT22;6449;47.666;9.160;2023-02-01T20:24:34;4.50;99.90
12771;DHT22;6449;47.666;9.160;2023-02-01T20:29:28;4.50;99.90
12771;DHT22;6449;47.666;9.160;2023-02-01T20:34:23;4.40;99.90
12771;DHT22;6449;47.666;9.160;2023-02-01T20:39:21;4.40;99.90
12771;DHT22;6449;47.666;9.160;2023-02-01T20:44:15;4.40;99.90
12771;DHT22;6449;47.666;9.160;2023-02-01T20:49:10;4.40;99.90
12771;DHT22;6449;47.666;9.160;2023-02-01T20:54:03;4.30;99.90
12771;DHT22;6449;47.666;9.160;2023-02-01T20:58:57;4.40;99.90
12771;DHT22;6449;47.666;9.160;2023-02-01T21:03:54;4.40;99.90
12771;DHT22;6449;47.666;9.160;2023-02-01T21:08:48;4.40;99.90
12771;DHT22;6449;47.666;9.160;2023-02-01T21:13:43;4.40;99.90
12771;DHT22;6449;47.666;9.160;2023-02-01T21:18:41;4.40;99.90
12771;DHT22;6449;47.666;9.160;2023-02-01T21:23:35;4.50;99.90
12771;DHT22;6449;47.666;9.160;2023-02-01T21:28:39;4.40;99.90
12771;DHT22;6449;47.666;9.160;2023-02-01T21:33:33;4.40;99.90
12771;DHT22;6449;47.666;9.160;2023-02-01T21:38:27;4.40;99.90
12771;DHT22;6449;47.666;9.160;2023-02-01T21:43:21;4.40;99.90
12771;DHT22;6449;47.666;9.160;2023-02-01T21:48:15;4.40;99.90
12771;DHT22;6449;47.666;9.160;2023-02-01T21:53:09;4.40;99.90
12771;DHT22;6449;47.666;9.160;2023-02-01T21:58:02;4.40;99.90
12771;DHT22;6449;47.666;9.160;2023-02-01T22:03:03;4.30;99.90
12771;DHT22;6449;47.666;9.160;2023-02-01T22:07:58;4.30;99.90
12771;DHT22;6449;47.666;9.160;2023-02-01T22:12:51;4.20;99.90
12771;DHT22;6449;47.666;9.160;2023-02-01T22:17:44;4.20;99.90
12771;DHT22;6449;47.666;9.160;2023-02-01T22:22:38;4.20;99.90
12771;DHT22;6449;47.666;9.160;2023-02-01T22:27:33;4.20;99.90
12771;DHT22;6449;47.666;9.160;2023-02-01T22:32:46;4.10;99.90
12771;DHT22;6449;47.666;9.160;2023-02-01T22:37:40;4.10;99.90
12771;DHT22;6449;47.666;9.160;2023-02-01T22:42:36;4.10;99.90
12771;DHT22;6449;47.666;9.160;2023-02-01T22:47:29;4.10;99.90
12771;DHT22;6449;47.666;9.160;2023-02-01T22:52:23;4.10;99.90
12771;DHT22;6449;47.666;9.160;2023-02-01T22:57:16;4.10;99.90
12771;DHT22;6449;47.666;9.160;2023-02-01T23:02:11;4.10;99.90
12771;DHT22;6449;47.666;9.160;2023-02-01T23:07:04;4.10;99.90
12771;DHT22;6449;47.666;9.160;2023-02-01T23:11:58;4.10;99.90
12771;DHT22;6449;47.666;9.160;2023-02-01T23:16:51;4.10;99.90
12771;DHT22;6449;47.666;9.160;2023-02-01T23:21:46;4.10;99.90
12771;DHT22;6449;47.666;9.160;2023-02-01T23:26:40;4.10;99.90
12771;DHT22;6449;47.666;9.160;2023-02-01T23:31:34;4.10;99.90
12771;DHT22;6449;47.666;9.160;2023-02-01T23:36:28;4.10;99.90
12771;DHT22;6449;47.666;9.160;2023-02-01T23:41:26;4.10;99.90
12771;DHT22;6449;47.666;9.160;2023-02-01T23:46:20;4.10;99.90
12771;DHT22;6449;47.666;9.160;2023-02-01T23:51:14;4.00;99.90
12771;DHT22;6449;47.666;9.160;2023-02-01T23:56:15;4.00;99.90
